Impacts METAR Board
IDs:

KMNZ - Hamilton Muni, TX, US

Updated at: 2300 UTC 29 May 2020
Potential Impact None Slight Moderate High
Time 29/11Z 29/12Z 29/13Z 29/14Z 29/15Z 29/16Z 29/17Z 29/18Z 29/19Z 29/20Z 29/21Z 29/22Z 29/23Z
Temp64 64 67 71 74 77 80 82 83 86 86 87 86
Dewpt64 64 65 65 64 62 60 57 55 55 54 54 53
Altim30.14 30.15 30.17 30.18 30.19 30.18 30.18 30.19 30.18 30.18 30.17 30.16 30.15
VIS10 10 10 10 10 10 10 10 10 10 10 10 10
CIG-- -- -- -- -- -- -- -- -- -- -- -- --
CoverCLRCLRCLRCLRSCTCLRCLRCLRCLRCLRCLRCLRCLR
FltCatVFRVFRVFRVFRVFRVFRVFRVFRVFRVFRVFRVFRVFR
WX--------------------------
WDir35035036020204050407080406050
WSpd3 5 9 11 10 10 10 11 9 9 10 7 8
WGst-- -- -- -- -- 16 16 15 15 -- -- -- --
Raw hourly METARs
KMNZ 291055Z AUTO 35003KT 10SM CLR 18/18 A3014 RMK AO2 T01780178
KMNZ 291155Z AUTO 35005KT 10SM CLR 18/18 A3015 RMK AO2 T01750175 10210 20173
KMNZ 291255Z AUTO 36009KT 10SM CLR 20/18 A3017 RMK AO2 T01950181
KMNZ 291355Z AUTO 02011KT 10SM CLR 22/19 A3018 RMK AO2 T02160185
KMNZ 291455Z AUTO 02010KT 10SM SCT020 23/18 A3019 RMK AO2 T02330175
KMNZ 291555Z AUTO 04010G16KT 10SM CLR 25/17 A3018 RMK AO2 T02500165
KMNZ 291655Z AUTO 05010G16KT 10SM CLR 27/15 A3018 RMK AO2 T02670153
KMNZ 291755Z AUTO 04011G15KT 10SM CLR 28/14 A3019 RMK AO2 T02780139 10281 20175
KMNZ 291855Z AUTO 07009G15KT 10SM CLR 29/13 A3018 RMK AO2 T02860129
KMNZ 291955Z AUTO 08009KT 10SM CLR 30/13 A3018 RMK AO2 T02980126
KMNZ 292055Z AUTO 04010KT 10SM CLR 30/12 A3017 RMK AO2 T02980120
KMNZ 292155Z AUTO 06007KT 10SM CLR 30/12 A3016 RMK AO2 T03040124
KMNZ 292255Z AUTO 05008KT 10SM CLR 30/12 A3015 RMK AO2 T03000115